Cahone, CO (81320)

7:51 AM MDT on April 25, 2015 (GMT -0600)
Cahone (2.5 Miles NNE) | | Change Station
CLOSE
Current Station
Personal Weather Station
Location: Cahone, CO
Elevation: 6870 ft
Nearby Weather Stations

Elev 6870 ft 37.69 °N, 108.80 °W | Updated 26 seconds ago

Overcast
Overcast
40.9 °F
Feels Like 41 °F
N
2.0
Wind Variable Wind from South
Gusts 7.0 mph

Today
High -- | Low -- °F
--% Chance of Precip.
Yesterday
High -- | Low -- °F
Precip. -- in
6:26 AM 7:59 PM
Waxing Crescent, 46% visible
Pressure 29.80 in
Visibility 10.0 miles
Clouds Few 3500 ft
Mostly Cloudy 4500 ft
Overcast 7000 ft
Windchill 41 °F
Dew Point 36 °F
Humidity 81%
Rainfall 0.00 in
Snow Depth Not available.
UV 0 out of 12
Pollen 9.20 out of 12
Air Quality Not available.
Flu Activity Sporadic
METAR KCEZ 251253Z AUTO 00000KT 10SM -RA FEW035 BKN045 OVC070 07/04 A2993 RMK AO2 RAE01B30 SLP091 P0000 T00670044

More Conditions Fewer Conditions

Pressure 29.80 in
Visibility 10.0 miles
Clouds Few 3500 ft
Mostly Cloudy 4500 ft
Overcast 7000 ft
Windchill 41 °F
Dew Point 36 °F
Humidity 81%
Rainfall 0.00 in
Snow Depth Not available.
UV 0 out of 12
Pollen 9.20 out of 12
Air Quality Not available.
Flu Activity Sporadic
METAR KCEZ 251253Z AUTO 00000KT 10SM -RA FEW035 BKN045 OVC070 07/04 A2993 RMK AO2 RAE01B30 SLP091 P0000 T00670044

More Conditions Fewer Conditions

10-Day Weather Forecast

Almanac

Astronomy

Apr. 25, 2015 Rise Set
Actual Time
Civil Twilight
Nautical Twilight
Astronomical Twilight
Moon
Length of Visible Light
Length of Day
Tomorrow will be .
, % of the Moon is Illuminated

Today's Extremes

State Highs State Lows

Community

WunderPhotos

Upload Photos

1,816,675 photos uploaded!

WunderBlogs® & News

Nearby

Air Quality

  Air Quality AQ Index Pollutant
Not available.

Snow Depth

Station Depth Elevation

Earthquake Activity

City Distance Mag. Time & Date
Minimum magnitude displayed is 2.5.

Coastal Water Temperatures

Place Temperature

Stations

Nearby Weather Stations

Station Location Temp. Windchill Dew Point Humidity Wind Precip. Elev Updated Type